< < Back
Terminal Aerodrome Forecast


Current Version              Previous Versions:   1  2  3  4  5  6  7  8  9  

Terminal Aerodrome Forecast

314
FTUS44 KMRX 301123
TAFTYS
TAF
KTYS 301123Z 3012/3112 33010G18KT P6SM OVC030
     FM301500 32012G20KT P6SM SCT035 BKN080
     FM301800 34010KT P6SM SCT050 BKN150
     FM310000 02004KT P6SM SCT250=

Latest METAR

008
SAUS80 KWBC 311400
MTRTYS
METAR KTYS 311353Z 02006KT 10SM BKN150 OVC250 M03/M07 A3038 RMK AO2
SLP296 T10281072


USA.gov is the U.S. government's official web portal to all federal, state and local government web resources and services.